createdAt,value
2023-04-08T00:00:13.273Z,8.14
2023-04-08T00:04:15.766Z,8.13
2023-04-08T00:08:17.657Z,8.14
2023-04-08T00:12:19.926Z,8.14
2023-04-08T00:16:22.852Z,8.13
2023-04-08T00:20:24.886Z,8.12
2023-04-08T00:24:26.718Z,8.10
2023-04-08T00:28:28.531Z,8.09
2023-04-08T00:32:30.569Z,8.07
2023-04-08T00:36:32.719Z,8.05
2023-04-08T00:40:35.141Z,8.05
2023-04-08T00:44:37.040Z,8.02
2023-04-08T00:48:38.947Z,8.00
2023-04-08T00:52:41.066Z,7.98
2023-04-08T00:56:45.085Z,7.96
2023-04-08T01:00:58.643Z,7.96
2023-04-08T01:05:15.864Z,7.97
2023-04-08T01:09:21.642Z,7.95
2023-04-08T01:13:25.344Z,7.97
2023-04-08T01:17:28.082Z,7.95
2023-04-08T01:21:30.569Z,7.91
2023-04-08T01:25:36.878Z,7.89
2023-04-08T01:29:39.453Z,7.86
2023-04-08T01:33:42.068Z,7.86
2023-04-08T01:37:47.093Z,7.87
2023-04-08T01:41:51.328Z,7.87
2023-04-08T01:45:58.576Z,7.87
2023-04-08T01:50:02.102Z,7.85
2023-04-08T01:54:03.878Z,7.83
2023-04-08T01:58:09.202Z,7.82
2023-04-08T02:02:12.631Z,7.79
2023-04-08T02:06:14.759Z,7.74
2023-04-08T02:10:16.690Z,7.71
2023-04-08T02:14:18.741Z,7.68
2023-04-08T02:18:28.316Z,7.67
2023-04-08T02:22:46.195Z,7.67
2023-04-08T02:26:51.211Z,7.64
2023-04-08T02:30:54.827Z,7.62
2023-04-08T02:34:58.314Z,7.58
2023-04-08T02:39:00.592Z,7.59
2023-04-08T02:43:02.848Z,7.57
2023-04-08T02:47:05.299Z,7.53
2023-04-08T02:51:10.149Z,7.50
2023-04-08T02:55:12.158Z,7.46
2023-04-08T02:59:14.417Z,7.44
2023-04-08T03:03:16.559Z,7.44
2023-04-08T03:07:18.415Z,7.41
2023-04-08T03:11:21.383Z,7.39
2023-04-08T03:15:23.276Z,7.41
2023-04-08T03:19:25.095Z,7.42
2023-04-08T03:23:26.954Z,7.43
2023-04-08T03:27:28.952Z,7.44
2023-04-08T03:31:30.896Z,7.41
2023-04-08T03:35:33.543Z,7.37
2023-04-08T03:39:35.406Z,7.32
2023-04-08T03:43:38.136Z,7.31
2023-04-08T03:47:40.074Z,7.29
2023-04-08T03:51:41.961Z,7.28
2023-04-08T03:55:43.758Z,7.24
2023-04-08T03:59:45.745Z,7.21
2023-04-08T04:03:47.671Z,7.22
2023-04-08T04:07:49.545Z,7.24
2023-04-08T04:11:51.488Z,7.24
2023-04-08T04:15:53.368Z,7.24
2023-04-08T04:19:55.270Z,7.22
2023-04-08T04:23:57.117Z,7.22
2023-04-08T04:27:58.981Z,7.28
2023-04-08T04:32:01.047Z,7.23
2023-04-08T04:36:02.909Z,7.21
2023-04-08T04:40:05.958Z,7.22
2023-04-08T04:44:07.843Z,7.17
2023-04-08T04:48:09.637Z,7.11
2023-04-08T04:52:11.660Z,7.05
2023-04-08T04:56:13.544Z,7.03
2023-04-08T05:00:16.563Z,7.04
2023-04-08T05:04:18.377Z,7.08
2023-04-08T05:08:21.367Z,7.11
2023-04-08T05:12:23.251Z,7.15
2023-04-08T05:16:25.236Z,7.20
2023-04-08T05:20:27.073Z,7.15
2023-04-08T05:24:28.894Z,7.01
2023-04-08T05:28:30.968Z,6.89
2023-04-08T05:32:32.913Z,6.83
2023-04-08T05:36:34.879Z,6.81
2023-04-08T05:40:36.779Z,6.72
2023-04-08T05:44:38.970Z,6.66
2023-04-08T05:48:40.778Z,6.68
2023-04-08T05:52:46.090Z,6.68
2023-04-08T05:56:49.098Z,6.70
2023-04-08T06:00:51.173Z,6.69
2023-04-08T06:04:53.071Z,6.75
2023-04-08T06:08:54.885Z,6.80
2023-04-08T06:12:56.692Z,6.84
2023-04-08T06:16:58.716Z,6.90
2023-04-08T06:21:00.689Z,6.93
2023-04-08T06:25:03.140Z,6.98
2023-04-08T06:29:05.272Z,7.00
2023-04-08T06:33:07.448Z,6.96
2023-04-08T06:37:09.341Z,6.98
2023-04-08T06:41:11.132Z,7.01
2023-04-08T06:45:13.054Z,7.02
2023-04-08T06:49:14.872Z,6.95
2023-04-08T06:53:16.666Z,6.92
2023-04-08T06:57:18.512Z,6.97
2023-04-08T07:01:20.852Z,6.93
2023-04-08T07:05:22.673Z,6.93
2023-04-08T07:09:24.489Z,6.97
2023-04-08T07:13:26.330Z,6.98
2023-04-08T07:17:28.318Z,7.07
2023-04-08T07:21:31.374Z,7.10
2023-04-08T07:25:35.384Z,7.13
2023-04-08T07:29:37.154Z,7.24
2023-04-08T07:33:38.963Z,7.25
2023-04-08T07:37:40.792Z,7.30
2023-04-08T07:41:42.572Z,7.33
2023-04-08T07:45:44.417Z,7.32
2023-04-08T07:49:47.180Z,7.40
2023-04-08T07:53:49.216Z,7.46
2023-04-08T07:57:50.998Z,7.53
2023-04-08T08:01:52.824Z,7.67
2023-04-08T08:05:54.616Z,7.74
2023-04-08T08:09:56.492Z,7.95
2023-04-08T08:13:58.343Z,8.10
2023-04-08T08:18:00.611Z,8.27
2023-04-08T08:22:02.478Z,8.44
2023-04-08T08:26:07.104Z,8.50
2023-04-08T08:30:09.518Z,8.43
2023-04-08T08:34:11.413Z,8.32
2023-04-08T08:38:14.183Z,8.33
2023-04-08T08:42:26.641Z,8.29
2023-04-08T08:46:28.528Z,8.21
2023-04-08T08:50:30.602Z,8.21
2023-04-08T08:54:32.811Z,8.22
2023-04-08T08:58:35.017Z,8.19
2023-04-08T09:02:36.983Z,8.19
2023-04-08T09:06:39.090Z,8.23
2023-04-08T09:10:40.941Z,8.27
2023-04-08T09:14:43.273Z,8.32
2023-04-08T09:18:49.323Z,8.39
2023-04-08T09:22:54.213Z,8.47
2023-04-08T09:26:56.769Z,8.54
2023-04-08T09:30:58.965Z,8.65
2023-04-08T09:35:00.930Z,8.73
2023-04-08T09:39:02.762Z,8.94
2023-04-08T09:43:06.642Z,9.13
2023-04-08T09:47:25.027Z,9.22
2023-04-08T09:51:33.403Z,9.31
2023-04-08T09:55:36.428Z,9.42
2023-04-08T09:59:39.668Z,9.55
2023-04-08T10:03:50.269Z,9.66
2023-04-08T10:07:52.848Z,9.76
2023-04-08T10:11:55.579Z,9.87
2023-04-08T10:16:26.050Z,9.99
2023-04-08T10:20:36.932Z,10.07
2023-04-08T10:24:38.763Z,10.12
2023-04-08T10:28:40.735Z,10.18
2023-04-08T10:32:42.685Z,10.30
2023-04-08T10:36:48.214Z,10.39
2023-04-08T10:40:50.158Z,10.46
2023-04-08T10:44:52.311Z,10.55
2023-04-08T10:49:03.939Z,10.67
2023-04-08T10:53:06.743Z,10.72
2023-04-08T10:57:08.660Z,10.81
2023-04-08T11:01:10.600Z,10.90
2023-04-08T11:05:12.564Z,11.00
2023-04-08T11:09:16.763Z,11.04
2023-04-08T11:13:19.102Z,11.03
2023-04-08T11:17:21.776Z,11.04
2023-04-08T11:21:25.739Z,11.05
2023-04-08T11:25:28.749Z,11.06
2023-04-08T11:29:31.042Z,11.09
2023-04-08T11:33:33.371Z,11.13
2023-04-08T11:37:42.268Z,11.20
2023-04-08T11:41:44.786Z,11.23
2023-04-08T11:45:46.653Z,11.30
2023-04-08T11:49:48.820Z,11.34
2023-04-08T11:53:54.638Z,11.44
2023-04-08T11:58:03.537Z,11.47
2023-04-08T12:02:05.531Z,11.49
2023-04-08T12:06:08.995Z,11.63
2023-04-08T12:10:12.389Z,11.74
2023-04-08T12:14:14.821Z,11.71
2023-04-08T12:18:16.760Z,11.73
2023-04-08T12:22:18.571Z,11.75
2023-04-08T12:26:20.459Z,11.79
2023-04-08T12:30:22.526Z,11.86
2023-04-08T12:34:24.975Z,11.93
2023-04-08T12:38:27.299Z,11.97
2023-04-08T12:42:29.361Z,11.97
2023-04-08T12:46:31.493Z,12.00
2023-04-08T12:50:33.277Z,12.09
2023-04-08T12:54:35.208Z,12.12
2023-04-08T12:58:37.451Z,12.13
2023-04-08T13:02:39.379Z,12.13
2023-04-08T13:06:41.336Z,12.17
2023-04-08T13:10:43.765Z,12.19
2023-04-08T13:14:45.528Z,12.20
2023-04-08T13:18:47.748Z,12.26
2023-04-08T13:22:49.514Z,12.25
2023-04-08T13:26:51.951Z,12.32
2023-04-08T13:30:54.335Z,12.32
2023-04-08T13:34:56.453Z,12.41
2023-04-08T13:38:58.687Z,12.50
2023-04-08T13:43:00.649Z,12.60
2023-04-08T13:47:02.814Z,12.70
2023-04-08T13:51:04.683Z,12.83
2023-04-08T13:55:06.999Z,13.06
2023-04-08T13:59:10.446Z,13.22
2023-04-08T14:03:12.273Z,13.41
2023-04-08T14:07:14.586Z,13.56
2023-04-08T14:11:16.532Z,13.71
2023-04-08T14:15:18.428Z,13.73
2023-04-08T14:19:20.458Z,13.58
2023-04-08T14:23:22.269Z,13.59
2023-04-08T14:27:24.055Z,13.60
2023-04-08T14:31:26.092Z,13.60
2023-04-08T14:35:28.026Z,13.53
2023-04-08T14:39:29.886Z,13.50
2023-04-08T14:43:31.667Z,13.37
2023-04-08T14:47:33.581Z,13.18
2023-04-08T14:51:38.014Z,12.90
2023-04-08T14:55:39.970Z,12.72
2023-04-08T14:59:41.759Z,12.61
2023-04-08T15:03:43.676Z,12.55
2023-04-08T15:07:47.433Z,12.48
2023-04-08T15:11:49.289Z,12.47
2023-04-08T15:15:53.962Z,12.45
2023-04-08T15:19:55.866Z,12.49
2023-04-08T15:23:57.911Z,12.66
2023-04-08T15:27:59.822Z,12.79
2023-04-08T15:32:01.748Z,12.89
2023-04-08T15:36:04.334Z,12.93
2023-04-08T15:40:07.081Z,12.88
2023-04-08T15:44:08.956Z,12.82
2023-04-08T15:48:13.554Z,12.67
2023-04-08T15:52:15.463Z,12.50
2023-04-08T15:56:18.278Z,12.46
2023-04-08T16:00:20.244Z,12.47
2023-04-08T16:04:23.221Z,12.40
2023-04-08T16:08:25.734Z,12.29
2023-04-08T16:12:27.594Z,12.28
2023-04-08T16:16:30.040Z,12.23
2023-04-08T16:20:32.267Z,12.18
2023-04-08T16:24:36.779Z,12.13
2023-04-08T16:28:40.041Z,12.02
2023-04-08T16:32:42.217Z,11.96
2023-04-08T16:36:44.049Z,11.96
2023-04-08T16:40:45.861Z,11.91
2023-04-08T16:44:47.807Z,11.86
2023-04-08T16:48:49.612Z,11.83
2023-04-08T16:52:51.718Z,11.82
2023-04-08T16:56:53.610Z,11.78
2023-04-08T17:00:55.715Z,11.69
2023-04-08T17:04:57.531Z,11.64
2023-04-08T17:08:59.368Z,11.59
2023-04-08T17:13:01.295Z,11.52
2023-04-08T17:17:03.178Z,11.44
2023-04-08T17:21:05.281Z,11.36
2023-04-08T17:25:07.782Z,11.24
2023-04-08T17:29:10.280Z,11.15
2023-04-08T17:33:12.081Z,11.03
2023-04-08T17:37:13.967Z,10.92
2023-04-08T17:41:21.603Z,10.81
2023-04-08T17:45:32.527Z,10.67
2023-04-08T17:49:34.488Z,10.58
2023-04-08T17:53:36.309Z,10.49
2023-04-08T17:57:39.187Z,10.41
2023-04-08T18:01:41.217Z,10.36
2023-04-08T18:05:43.332Z,10.28
2023-04-08T18:09:48.142Z,10.21
2023-04-08T18:13:50.096Z,10.14
2023-04-08T18:17:52.216Z,10.10
2023-04-08T18:21:55.438Z,10.07
2023-04-08T18:25:57.289Z,10.01
2023-04-08T18:29:59.380Z,9.96
2023-04-08T18:34:01.177Z,9.88
2023-04-08T18:38:02.980Z,9.83
2023-04-08T18:42:04.853Z,9.76
2023-04-08T18:46:06.700Z,9.68
2023-04-08T18:50:09.459Z,9.58
2023-04-08T18:54:11.252Z,9.52
2023-04-08T18:58:13.113Z,9.44
2023-04-08T19:02:15.328Z,9.38
2023-04-08T19:06:17.687Z,9.34
2023-04-08T19:10:19.758Z,9.28
2023-04-08T19:14:21.789Z,9.27
2023-04-08T19:18:23.750Z,9.23
2023-04-08T19:22:25.582Z,9.19
2023-04-08T19:26:27.413Z,9.16
2023-04-08T19:30:29.382Z,9.14
2023-04-08T19:34:31.273Z,9.12
2023-04-08T19:38:33.105Z,9.11
2023-04-08T19:42:35.069Z,9.09
2023-04-08T19:46:37.503Z,9.06
2023-04-08T19:50:39.751Z,9.02
2023-04-08T19:54:43.571Z,8.99
2023-04-08T19:58:46.433Z,8.97
2023-04-08T20:02:48.611Z,8.94
2023-04-08T20:06:50.629Z,8.90
2023-04-08T20:10:54.071Z,8.87
2023-04-08T20:14:55.916Z,8.85
2023-04-08T20:18:57.677Z,8.83
2023-04-08T20:22:59.488Z,8.83
2023-04-08T20:27:01.608Z,8.79
2023-04-08T20:31:03.642Z,8.76
2023-04-08T20:35:06.004Z,8.71
2023-04-08T20:39:10.959Z,8.66
2023-04-08T20:43:12.795Z,8.61
2023-04-08T20:47:14.637Z,8.57
2023-04-08T20:51:17.677Z,8.54
2023-04-08T20:55:19.641Z,8.52
2023-04-08T20:59:21.463Z,8.47
2023-04-08T21:03:23.367Z,8.44
2023-04-08T21:07:26.412Z,8.40
2023-04-08T21:11:28.637Z,8.39
2023-04-08T21:15:30.627Z,8.34
2023-04-08T21:19:32.471Z,8.33
2023-04-08T21:23:34.278Z,8.29
2023-04-08T21:27:36.210Z,8.25
2023-04-08T21:31:38.259Z,8.23
2023-04-08T21:35:40.242Z,8.19
2023-04-08T21:39:42.051Z,8.17
2023-04-08T21:43:43.864Z,8.15
2023-04-08T21:47:45.787Z,8.11
2023-04-08T21:51:47.642Z,8.07
2023-04-08T21:55:49.728Z,8.02
2023-04-08T21:59:51.850Z,7.99
2023-04-08T22:03:55.669Z,7.96
2023-04-08T22:07:57.586Z,7.93
2023-04-08T22:11:59.456Z,7.90
2023-04-08T22:16:01.281Z,7.86
2023-04-08T22:20:03.519Z,7.83
2023-04-08T22:24:05.500Z,7.80
2023-04-08T22:28:07.790Z,7.77
2023-04-08T22:32:09.655Z,7.74
2023-04-08T22:36:11.548Z,7.73
2023-04-08T22:40:13.461Z,7.71
2023-04-08T22:44:15.949Z,7.68
2023-04-08T22:48:17.789Z,7.65
2023-04-08T22:52:19.644Z,7.63
2023-04-08T22:56:21.718Z,7.61
2023-04-08T23:00:23.702Z,7.58
2023-04-08T23:04:25.893Z,7.57
2023-04-08T23:08:27.779Z,7.55
2023-04-08T23:12:29.659Z,7.51
2023-04-08T23:16:31.803Z,7.49
2023-04-08T23:20:34.693Z,7.46
2023-04-08T23:24:36.488Z,7.44
2023-04-08T23:28:38.293Z,7.43
2023-04-08T23:32:40.183Z,7.41
2023-04-08T23:36:42.065Z,7.37
2023-04-08T23:40:43.997Z,7.34
2023-04-08T23:44:48.124Z,7.31
2023-04-08T23:48:50.166Z,7.28
2023-04-08T23:52:52.258Z,7.25
2023-04-08T23:56:54.043Z,7.21
